Time;durP1;ratioP1;P1;durP2;ratioP2;P2;SDS_P1;SDS_P2;PMS_P1;PMS_P2;Temp;Humidity;BMP_temperature;BMP_pressure;BME280_temperature;BME280_humidity;BME280_pressure;Samples;Min_cycle;Max_cycle;Signal;HPM_P1;HPM_P2
2023/02/22 00:02:09;;;;;;;10.63;2.80;;;4.30;99.90;;;;;;5031855;28;20225;-77
2023/02/22 00:04:38;;;;;;;9.47;2.83;;;4.30;99.90;;;;;;5030176;28;20195;-75
2023/02/22 00:07:06;;;;;;;7.83;2.77;;;4.20;99.90;;;;;;5014372;28;20203;-74
2023/02/22 00:09:33;;;;;;;11.47;2.60;;;4.20;99.90;;;;;;5030321;28;20204;-74
2023/02/22 00:12:00;;;;;;;12.60;3.10;;;4.30;99.90;;;;;;5025416;28;20684;-78
2023/02/22 00:14:27;;;;;;;9.63;2.47;;;4.30;99.90;;;;;;5032493;28;20558;-78
2023/02/22 00:16:58;;;;;;;10.93;2.80;;;4.30;99.90;;;;;;5031053;28;20224;-76
2023/02/22 00:19:29;;;;;;;8.37;2.40;;;4.40;99.90;;;;;;5032290;28;20204;-79
2023/02/22 00:21:57;;;;;;;7.33;2.40;;;4.30;99.90;;;;;;5047593;28;20194;-78
2023/02/22 00:24:24;;;;;;;11.47;3.37;;;4.20;99.90;;;;;;5031333;28;20197;-77
2023/02/22 00:26:54;;;;;;;11.40;3.37;;;4.20;99.90;;;;;;5033995;28;20189;-77
2023/02/22 00:29:46;;;;;;;11.33;3.17;;;4.20;99.90;;;;;;5029838;28;20211;-77
2023/02/22 00:32:18;;;;;;;8.87;3.20;;;4.10;99.90;;;;;;5012360;28;20248;-79
2023/02/22 00:34:45;;;;;;;12.37;3.10;;;4.20;99.90;;;;;;5059857;28;20235;-77
2023/02/22 00:37:12;;;;;;;8.47;3.33;;;4.00;99.90;;;;;;5032150;28;20203;-78
2023/02/22 00:39:39;;;;;;;11.87;3.20;;;4.00;99.90;;;;;;5032759;28;20202;-79
2023/02/22 00:42:06;;;;;;;9.47;3.77;;;3.90;99.90;;;;;;5059924;28;20241;-79
2023/02/22 00:44:33;;;;;;;12.20;3.53;;;4.00;99.90;;;;;;5028622;28;20224;-78
2023/02/22 00:47:00;;;;;;;10.97;3.53;;;4.00;99.90;;;;;;5013685;28;20246;-80
2023/02/22 00:49:27;;;;;;;8.90;3.50;;;3.90;99.90;;;;;;5020821;28;20386;-78
2023/02/22 00:51:54;;;;;;;9.60;3.23;;;3.90;99.90;;;;;;5028857;28;20256;-79
2023/02/22 00:54:23;;;;;;;10.30;3.20;;;3.80;99.90;;;;;;5029266;28;20215;-78
2023/02/22 00:56:50;;;;;;;12.57;3.10;;;3.80;99.90;;;;;;5027997;28;20193;-76
2023/02/22 00:59:17;;;;;;;9.83;3.67;;;3.70;99.90;;;;;;5059963;28;20209;-76
2023/02/22 01:01:44;;;;;;;12.33;3.50;;;3.60;99.90;;;;;;5043334;28;20200;-76
2023/02/22 01:04:10;;;;;;;9.67;3.50;;;3.50;99.90;;;;;;5042324;28;20565;-77
2023/02/22 01:06:38;;;;;;;13.37;3.57;;;3.50;99.90;;;;;;5029376;28;20193;-79
2023/02/22 01:09:06;;;;;;;8.53;3.50;;;3.50;99.90;;;;;;5031074;28;20218;-77
2023/02/22 01:11:33;;;;;;;9.30;3.40;;;3.60;99.90;;;;;;5030578;28;20222;-79
2023/02/22 01:14:00;;;;;;;9.63;3.00;;;3.40;99.90;;;;;;5062927;28;20222;-80
2023/02/22 01:16:28;;;;;;;9.50;3.13;;;3.50;99.90;;;;;;5031846;28;20265;-80
2023/02/22 01:18:55;;;;;;;9.10;3.50;;;3.40;99.90;;;;;;5031651;28;20229;-80
2023/02/22 01:21:22;;;;;;;12.00;4.00;;;3.30;99.90;;;;;;5029748;28;20193;-78
2023/02/22 01:23:49;;;;;;;10.33;3.83;;;3.30;99.90;;;;;;5029744;28;20283;-77
2023/02/22 01:26:16;;;;;;;10.20;3.60;;;3.20;99.90;;;;;;5029814;28;20523;-79
2023/02/22 01:28:43;;;;;;;12.23;3.60;;;3.20;99.90;;;;;;5030778;28;20196;-78
2023/02/22 01:31:11;;;;;;;9.00;3.93;;;3.20;99.90;;;;;;5030579;28;20189;-75
2023/02/22 01:33:40;;;;;;;15.10;4.43;;;3.10;99.90;;;;;;5014127;28;20224;-75
2023/02/22 01:36:10;;;;;;;12.50;3.90;;;3.00;99.90;;;;;;5046222;28;20194;-75
2023/02/22 01:38:38;;;;;;;10.83;4.17;;;3.00;99.90;;;;;;5027967;28;20200;-76
2023/02/22 01:41:05;;;;;;;16.67;4.33;;;3.00;99.90;;;;;;5027663;28;20707;-77
2023/02/22 01:43:33;;;;;;;13.00;4.10;;;3.00;99.90;;;;;;5061609;28;20200;-76
2023/02/22 01:46:25;;;;;;;14.33;4.37;;;3.00;99.90;;;;;;5027343;28;20569;-77
2023/02/22 01:49:01;;;;;;;13.73;4.63;;;3.00;99.90;;;;;;5031595;28;20200;-75
2023/02/22 01:51:36;;;;;;;16.43;4.73;;;3.20;99.90;;;;;;5052779;28;20197;-76
2023/02/22 01:54:12;;;;;;;14.73;4.20;;;3.00;99.90;;;;;;5028805;28;20714;-77
2023/02/22 01:57:05;;;;;;;12.70;3.97;;;3.10;99.90;;;;;;5029706;28;20202;-75
2023/02/22 01:59:35;;;;;;;13.60;4.03;;;3.20;99.90;;;;;;5010351;28;20226;-76
2023/02/22 02:02:03;;;;;;;13.10;3.87;;;3.20;99.90;;;;;;5031392;28;20187;-76
2023/02/22 02:04:32;;;;;;;12.07;4.07;;;3.20;99.90;;;;;;5030963;28;20215;-76
2023/02/22 02:07:06;;;;;;;9.37;3.60;;;3.40;99.90;;;;;;5032319;28;20775;-77
2023/02/22 02:09:45;;;;;;;10.67;3.60;;;3.40;99.90;;;;;;5064426;28;20533;-75
2023/02/22 02:12:16;;;;;;;8.87;3.33;;;3.40;99.90;;;;;;5064493;28;20192;-76
2023/02/22 02:14:43;;;;;;;9.30;3.20;;;3.40;99.90;;;;;;5064277;28;20220;-77
2023/02/22 02:17:14;;;;;;;9.60;3.43;;;3.40;99.90;;;;;;5064343;28;20574;-77
2023/02/22 02:19:59;;;;;;;9.87;3.53;;;3.40;99.90;;;;;;5030898;28;20266;-76
2023/02/22 02:22:42;;;;;;;10.73;3.70;;;3.30;99.90;;;;;;5037871;28;20668;-76
2023/02/22 02:25:21;;;;;;;8.53;3.43;;;3.20;99.90;;;;;;5055580;28;20219;-77
2023/02/22 02:27:54;;;;;;;11.37;3.80;;;3.20;99.90;;;;;;5063719;28;21074;-77
2023/02/22 02:30:42;;;;;;;10.40;3.30;;;3.30;99.90;;;;;;5057674;28;20192;-77
2023/02/22 02:33:28;;;;;;;9.40;3.53;;;3.40;99.90;;;;;;5030900;28;20212;-77
2023/02/22 02:36:16;;;;;;;9.53;3.80;;;3.30;99.90;;;;;;5030550;28;20200;-77
2023/02/22 02:38:59;;;;;;;14.90;3.40;;;3.30;99.90;;;;;;5032135;28;20586;-77
2023/02/22 02:41:33;;;;;;;10.90;3.00;;;3.20;99.90;;;;;;5031380;28;20185;-79
2023/02/22 02:44:04;;;;;;;7.77;3.10;;;3.30;99.90;;;;;;5032285;28;20198;-78
2023/02/22 02:47:06;;;;;;;10.63;3.63;;;3.20;99.90;;;;;;5030499;28;20603;-77
2023/02/22 02:49:44;;;;;;;8.80;3.50;;;3.30;99.90;;;;;;4935117;29;20733;-76
2023/02/22 02:52:12;;;;;;;7.53;3.20;;;3.40;99.90;;;;;;4965744;28;20198;-75
2023/02/22 02:54:40;;;;;;;9.93;2.80;;;3.30;99.90;;;;;;4934753;28;20293;-76
2023/02/22 02:57:08;;;;;;;9.63;3.30;;;3.30;99.90;;;;;;4949710;28;20200;-77
2023/02/22 02:59:36;;;;;;;8.90;2.80;;;3.20;99.90;;;;;;4949822;28;20214;-79
2023/02/22 03:02:23;;;;;;;9.57;3.10;;;3.20;99.90;;;;;;4934011;29;20196;-78
2023/02/22 03:04:58;;;;;;;7.57;3.03;;;3.20;99.90;;;;;;4933208;29;20200;-80
2023/02/22 03:08:06;;;;;;;7.97;2.70;;;3.30;99.90;;;;;;4949584;29;20204;-79
2023/02/22 03:11:13;;;;;;;8.57;2.80;;;3.30;99.90;;;;;;4933108;29;20207;-80
2023/02/22 03:13:55;;;;;;;6.73;2.67;;;3.20;99.90;;;;;;4855283;29;20734;-77
2023/02/22 03:16:59;;;;;;;7.10;2.90;;;3.30;99.90;;;;;;4840692;29;20331;-77
2023/02/22 03:19:44;;;;;;;7.93;2.87;;;3.30;99.90;;;;;;4858688;29;20215;-76
2023/02/22 03:22:22;;;;;;;7.27;3.10;;;3.20;99.90;;;;;;4860807;29;20197;-77
2023/02/22 03:25:03;;;;;;;7.90;2.83;;;3.20;99.90;;;;;;4884053;29;20203;-77
2023/02/22 03:27:45;;;;;;;8.90;2.80;;;3.20;99.90;;;;;;4932951;29;20207;-77
2023/02/22 03:30:24;;;;;;;7.53;2.73;;;3.20;99.90;;;;;;4928348;29;20199;-76
2023/02/22 03:32:57;;;;;;;7.60;2.60;;;3.30;99.90;;;;;;4917863;29;20274;-80
2023/02/22 03:35:30;;;;;;;8.43;3.13;;;3.30;99.90;;;;;;4943083;29;20202;-79
2023/02/22 03:38:01;;;;;;;7.80;2.87;;;3.20;99.90;;;;;;4933267;29;20644;-75
2023/02/22 03:40:33;;;;;;;8.83;3.50;;;3.20;99.90;;;;;;4935237;29;20216;-78
2023/02/22 03:43:08;;;;;;;5.70;2.90;;;3.10;99.90;;;;;;4937205;29;20215;-77
2023/02/22 03:45:39;;;;;;;10.03;3.50;;;3.10;99.90;;;;;;4933914;29;20209;-78
2023/02/22 03:48:18;;;;;;;11.43;3.80;;;3.10;99.90;;;;;;4999480;28;20227;-78
2023/02/22 03:50:47;;;;;;;7.07;3.07;;;3.10;99.90;;;;;;5025279;28;20188;-75
2023/02/22 03:53:14;;;;;;;10.20;3.73;;;3.30;99.90;;;;;;5033398;28;20224;-76
2023/02/22 03:55:41;;;;;;;6.50;2.93;;;3.30;99.90;;;;;;5033695;28;20201;-78
2023/02/22 03:58:14;;;;;;;8.43;3.60;;;3.40;99.90;;;;;;5033906;28;20204;-77
2023/02/22 04:00:43;;;;;;;10.73;3.73;;;3.40;99.90;;;;;;5033855;28;20208;-79
2023/02/22 04:03:10;;;;;;;11.27;3.27;;;3.30;99.90;;;;;;5035376;28;20196;-78
2023/02/22 04:05:38;;;;;;;7.80;3.60;;;3.20;99.90;;;;;;5034830;28;20191;-79
2023/02/22 04:08:05;;;;;;;8.57;3.80;;;3.20;99.90;;;;;;5033245;28;20192;-77
2023/02/22 04:10:32;;;;;;;7.60;3.30;;;3.20;99.90;;;;;;5033101;28;20194;-78
2023/02/22 04:12:59;;;;;;;7.37;3.33;;;3.10;99.90;;;;;;5034476;28;20202;-79
2023/02/22 04:15:26;;;;;;;6.20;3.30;;;3.10;99.90;;;;;;5033174;28;20209;-78
2023/02/22 04:17:53;;;;;;;8.70;3.40;;;3.00;99.90;;;;;;5032985;28;20196;-79
2023/02/22 04:20:24;;;;;;;8.73;3.30;;;3.00;99.90;;;;;;5013452;28;20196;-78
2023/02/22 04:22:52;;;;;;;8.43;3.37;;;3.00;99.90;;;;;;5014637;28;20295;-79
2023/02/22 04:25:20;;;;;;;8.60;3.27;;;3.10;99.90;;;;;;5046278;28;20200;-76
2023/02/22 04:27:48;;;;;;;5.53;3.23;;;3.20;99.90;;;;;;5046898;28;20205;-79
2023/02/22 04:30:19;;;;;;;8.50;3.80;;;3.10;99.90;;;;;;5014945;28;20194;-78
2023/02/22 04:32:47;;;;;;;8.90;3.57;;;3.10;99.90;;;;;;5046524;28;20240;-77
2023/02/22 04:35:13;;;;;;;8.37;3.90;;;3.20;99.90;;;;;;5045930;28;20232;-76
2023/02/22 04:37:40;;;;;;;6.93;3.73;;;3.10;99.90;;;;;;5057416;28;20528;-79
2023/02/22 04:40:08;;;;;;;4.73;2.40;;;3.10;99.90;;;;;;5032938;28;20207;-78
2023/02/22 04:42:36;;;;;;;3.07;2.20;;;2.80;99.90;;;;;;5031965;28;20204;-77
2023/02/22 04:45:05;;;;;;;3.63;1.50;;;2.50;99.90;;;;;;5033184;28;20275;-80
2023/02/22 04:47:32;;;;;;;2.20;1.47;;;2.40;99.90;;;;;;5020092;28;20238;-79
2023/02/22 04:49:59;;;;;;;3.03;2.00;;;2.20;99.90;;;;;;5014289;28;20662;-80
2023/02/22 04:52:26;;;;;;;4.53;2.00;;;2.20;99.90;;;;;;5013427;28;20200;-81
2023/02/22 04:54:53;;;;;;;3.27;1.83;;;2.10;99.90;;;;;;5041439;28;20247;-77
2023/02/22 04:57:21;;;;;;;3.63;2.00;;;2.10;99.90;;;;;;5033672;28;20180;-80
2023/02/22 04:59:49;;;;;;;2.43;1.90;;;2.00;99.90;;;;;;5015859;28;20204;-79
2023/02/22 05:02:17;;;;;;;2.50;1.90;;;2.10;99.90;;;;;;5046916;28;20192;-75
2023/02/22 05:04:44;;;;;;;3.73;2.20;;;2.20;99.90;;;;;;5032739;28;20630;-77
2023/02/22 05:07:11;;;;;;;3.37;2.00;;;2.20;99.90;;;;;;5018112;28;20200;-79
2023/02/22 05:09:38;;;;;;;3.83;2.33;;;2.30;99.90;;;;;;5065818;28;20218;-82
2023/02/22 05:12:05;;;;;;;4.10;2.20;;;2.30;99.90;;;;;;5032704;28;20660;-82
2023/02/22 05:14:33;;;;;;;4.00;2.50;;;2.30;99.90;;;;;;5032207;28;20223;-82
2023/02/22 05:17:01;;;;;;;3.90;2.30;;;2.30;99.90;;;;;;5032157;28;20217;-81
2023/02/22 05:19:28;;;;;;;4.53;2.27;;;2.20;99.90;;;;;;5032436;28;20219;-81
2023/02/22 05:21:55;;;;;;;3.33;2.00;;;2.30;99.90;;;;;;5033571;28;20524;-81
2023/02/22 05:24:22;;;;;;;4.03;2.17;;;2.30;99.90;;;;;;5033439;28;20204;-81
2023/02/22 05:26:50;;;;;;;3.97;2.30;;;2.30;99.90;;;;;;5032679;28;20680;-83
2023/02/22 05:29:17;;;;;;;3.87;1.97;;;2.40;99.90;;;;;;5032321;28;20195;-82
2023/02/22 05:31:43;;;;;;;4.70;2.13;;;2.30;99.90;;;;;;5032274;28;20986;-81
2023/02/22 05:34:11;;;;;;;3.33;2.20;;;2.30;99.90;;;;;;5065115;28;20214;-80
2023/02/22 05:36:37;;;;;;;2.53;2.10;;;2.30;99.90;;;;;;5031977;28;20203;-83
2023/02/22 05:39:04;;;;;;;3.83;2.07;;;2.30;99.90;;;;;;5032140;28;20358;-82
2023/02/22 05:41:31;;;;;;;2.90;2.10;;;2.40;99.90;;;;;;5032845;28;20198;-79
2023/02/22 05:43:58;;;;;;;3.30;2.20;;;2.40;99.90;;;;;;5031865;28;20199;-78
2023/02/22 05:46:25;;;;;;;4.23;2.57;;;2.40;99.90;;;;;;5064886;28;20576;-80
2023/02/22 05:48:52;;;;;;;3.97;2.30;;;2.50;99.90;;;;;;5031796;28;20199;-79
2023/02/22 05:51:19;;;;;;;2.67;2.10;;;2.50;99.90;;;;;;5031994;28;20218;-79
2023/02/22 05:53:46;;;;;;;3.73;2.50;;;2.40;99.90;;;;;;5032857;28;20626;-77
2023/02/22 05:56:18;;;;;;;4.93;2.23;;;2.40;99.90;;;;;;5064978;28;20200;-80
2023/02/22 05:58:45;;;;;;;3.53;2.10;;;2.40;99.90;;;;;;5032757;28;20221;-75
2023/02/22 06:01:12;;;;;;;4.30;2.40;;;2.50;99.90;;;;;;5031462;28;20199;-73
2023/02/22 06:03:39;;;;;;;4.47;2.40;;;2.50;99.90;;;;;;5031413;28;20195;-74
2023/02/22 06:06:06;;;;;;;5.97;2.40;;;2.50;99.90;;;;;;5032816;28;20210;-78
2023/02/22 06:08:35;;;;;;;4.37;2.53;;;2.50;99.90;;;;;;5032805;28;20236;-81
2023/02/22 06:11:02;;;;;;;3.93;2.30;;;2.60;99.90;;;;;;5031292;28;20203;-79
2023/02/22 06:13:29;;;;;;;4.83;2.70;;;2.60;99.90;;;;;;5031265;28;20684;-76
2023/02/22 06:15:55;;;;;;;4.10;2.30;;;2.60;99.90;;;;;;5032167;28;20211;-78
2023/02/22 06:18:25;;;;;;;4.00;2.40;;;2.60;99.90;;;;;;5032621;28;20326;-78
2023/02/22 06:20:52;;;;;;;3.87;2.43;;;2.70;99.90;;;;;;5065940;28;20202;-79
2023/02/22 06:23:19;;;;;;;4.17;2.40;;;2.80;99.90;;;;;;5064878;28;20203;-77
2023/02/22 06:25:47;;;;;;;4.97;2.70;;;2.80;99.90;;;;;;5033330;28;20200;-76
2023/02/22 06:28:14;;;;;;;4.70;2.50;;;2.80;99.90;;;;;;5035380;28;20192;-77
2023/02/22 06:30:44;;;;;;;4.37;2.50;;;2.90;99.90;;;;;;5033011;28;20197;-81
2023/02/22 06:33:11;;;;;;;3.30;2.20;;;2.90;99.90;;;;;;5065149;28;20191;-79
2023/02/22 06:35:38;;;;;;;2.57;2.07;;;2.90;99.90;;;;;;5030406;28;20319;-80
2023/02/22 06:38:05;;;;;;;3.53;2.30;;;2.90;99.90;;;;;;5032101;28;20197;-79
2023/02/22 06:40:31;;;;;;;5.17;2.33;;;2.90;99.90;;;;;;5031093;28;20188;-80
2023/02/22 06:42:58;;;;;;;2.80;2.10;;;3.00;99.90;;;;;;5030993;28;20256;-80
2023/02/22 06:45:25;;;;;;;3.10;1.97;;;3.10;99.90;;;;;;5032383;28;20275;-83
2023/02/22 06:47:54;;;;;;;3.00;2.10;;;3.10;99.90;;;;;;5064711;28;20752;-82
2023/02/22 06:50:27;;;;;;;3.43;2.30;;;3.10;99.90;;;;;;5030888;28;20544;-83
2023/02/22 06:52:55;;;;;;;2.67;1.83;;;3.20;99.90;;;;;;5033520;28;20223;-84
2023/02/22 06:55:27;;;;;;;2.93;2.20;;;3.20;99.90;;;;;;5035135;28;20281;-83
2023/02/22 06:57:54;;;;;;;3.87;1.90;;;3.10;99.90;;;;;;5034651;28;20196;-83
2023/02/22 07:00:23;;;;;;;3.57;1.57;;;3.00;99.90;;;;;;5035361;28;20664;-84
2023/02/22 07:02:52;;;;;;;3.17;1.73;;;3.10;99.90;;;;;;5034639;28;20732;-75
2023/02/22 07:05:20;;;;;;;3.07;1.57;;;3.10;99.90;;;;;;5035253;28;20208;-85
2023/02/22 07:07:49;;;;;;;3.23;1.80;;;3.00;99.90;;;;;;5035268;28;20290;-86
2023/02/22 07:10:20;;;;;;;2.23;1.77;;;3.10;99.90;;;;;;5036824;28;20655;-84
2023/02/22 07:12:47;;;;;;;3.17;1.97;;;3.20;99.90;;;;;;5034823;28;20195;-81
2023/02/22 07:15:17;;;;;;;2.87;1.70;;;3.30;99.90;;;;;;5035274;28;20303;-75
2023/02/22 07:17:44;;;;;;;3.47;2.00;;;3.30;99.90;;;;;;5034776;28;20204;-77
2023/02/22 07:20:10;;;;;;;2.70;1.80;;;3.20;99.90;;;;;;5034484;28;20188;-73
2023/02/22 07:22:41;;;;;;;3.73;2.00;;;3.20;99.90;;;;;;5067441;28;20719;-73
2023/02/22 07:25:10;;;;;;;3.57;2.03;;;3.30;99.90;;;;;;5035176;28;20196;-73
2023/02/22 07:27:39;;;;;;;2.87;1.83;;;3.30;99.90;;;;;;5034105;28;20189;-76
2023/02/22 07:30:14;;;;;;;3.40;2.10;;;3.40;99.90;;;;;;5035164;28;20263;-76
2023/02/22 07:32:42;;;;;;;5.20;2.20;;;3.20;99.90;;;;;;5033577;28;20197;-73
2023/02/22 07:35:28;;;;;;;3.67;2.33;;;3.00;99.90;;;;;;5033817;28;20762;-73
2023/02/22 07:37:55;;;;;;;3.17;1.80;;;3.10;99.90;;;;;;5035550;28;20205;-72
2023/02/22 07:40:23;;;;;;;4.17;2.10;;;3.10;99.90;;;;;;5033459;28;20196;-71
2023/02/22 07:43:00;;;;;;;4.97;2.40;;;3.10;99.90;;;;;;5017104;28;20201;-71
2023/02/22 07:45:29;;;;;;;3.77;2.20;;;3.10;99.90;;;;;;5031501;28;20559;-71
2023/02/22 07:47:58;;;;;;;3.40;2.50;;;3.20;99.90;;;;;;5031701;28;20219;-72
2023/02/22 07:50:27;;;;;;;3.87;2.40;;;3.30;99.90;;;;;;5062022;28;20208;-74
2023/02/22 07:52:55;;;;;;;3.30;2.17;;;3.30;99.90;;;;;;5031306;28;20202;-69
2023/02/22 07:55:26;;;;;;;4.50;2.60;;;3.20;99.90;;;;;;5034334;28;20216;-70
2023/02/22 07:57:55;;;;;;;5.43;2.47;;;3.30;99.90;;;;;;5030937;28;20632;-70
2023/02/22 08:00:43;;;;;;;4.40;2.60;;;3.40;99.90;;;;;;5036213;28;20193;-74
2023/02/22 08:03:13;;;;;;;3.63;2.30;;;3.60;99.90;;;;;;5037487;28;20608;-70
2023/02/22 08:05:43;;;;;;;4.83;2.47;;;3.60;99.90;;;;;;5036339;28;20303;-68
2023/02/22 08:08:10;;;;;;;3.93;2.10;;;3.80;99.90;;;;;;5032292;28;20205;-71
2023/02/22 08:10:37;;;;;;;3.40;2.27;;;3.70;99.90;;;;;;5031790;28;20203;-74
2023/02/22 08:13:04;;;;;;;3.37;2.40;;;3.70;99.90;;;;;;5031452;28;20673;-75
2023/02/22 08:15:34;;;;;;;3.63;2.27;;;3.70;99.90;;;;;;5031690;28;20227;-71
2023/02/22 08:18:03;;;;;;;3.10;2.10;;;3.80;99.90;;;;;;5030472;28;20210;-69
2023/02/22 08:20:30;;;;;;;2.43;1.67;;;4.00;99.90;;;;;;5063200;28;20202;-73
2023/02/22 08:22:57;;;;;;;3.30;2.10;;;4.10;99.90;;;;;;5030907;28;20293;-71
2023/02/22 08:25:26;;;;;;;5.40;2.20;;;4.30;99.90;;;;;;5032758;28;20271;-74
2023/02/22 08:28:00;;;;;;;3.60;2.30;;;4.40;99.90;;;;;;5032667;28;20201;-71
2023/02/22 08:30:29;;;;;;;3.93;2.20;;;4.50;99.90;;;;;;5032652;28;20206;-73
2023/02/22 08:32:56;;;;;;;3.17;2.00;;;4.60;99.90;;;;;;5031753;28;20191;-72
2023/02/22 08:35:24;;;;;;;3.63;2.37;;;4.50;99.90;;;;;;5014851;28;20218;-70
2023/02/22 08:37:57;;;;;;;3.97;2.50;;;4.60;99.90;;;;;;5032428;28;20246;-72
2023/02/22 08:40:27;;;;;;;4.37;2.20;;;4.80;99.90;;;;;;5032399;28;20303;-71
2023/02/22 08:42:54;;;;;;;2.60;2.00;;;4.80;99.90;;;;;;5032432;28;20217;-71
2023/02/22 08:45:21;;;;;;;3.23;2.00;;;4.90;99.90;;;;;;5065385;28;20672;-71
2023/02/22 08:47:48;;;;;;;2.90;1.90;;;4.90;99.90;;;;;;5032046;28;20253;-70
2023/02/22 08:50:25;;;;;;;3.47;2.30;;;4.90;99.90;;;;;;5033416;28;20538;-70
2023/02/22 08:53:00;;;;;;;2.77;1.80;;;4.90;99.90;;;;;;5033467;28;20223;-71
2023/02/22 08:55:34;;;;;;;3.13;1.83;;;5.00;99.90;;;;;;5033278;28;20693;-71
2023/02/22 08:58:02;;;;;;;4.83;2.20;;;5.20;99.90;;;;;;5032159;28;20202;-70
2023/02/22 09:00:31;;;;;;;3.43;2.17;;;5.20;99.90;;;;;;5032267;28;20207;-71
2023/02/22 09:03:00;;;;;;;3.53;1.87;;;5.30;99.90;;;;;;5032053;28;20226;-70
2023/02/22 09:05:28;;;;;;;3.60;2.03;;;5.10;99.90;;;;;;5065314;28;20617;-70
2023/02/22 09:07:57;;;;;;;2.90;2.13;;;5.00;99.90;;;;;;5033131;28;20187;-71
2023/02/22 09:10:30;;;;;;;3.93;2.30;;;5.10;99.90;;;;;;5032446;28;20202;-71
2023/02/22 09:12:59;;;;;;;4.27;2.43;;;5.10;99.90;;;;;;5031514;28;20688;-71
2023/02/22 09:15:27;;;;;;;3.60;2.17;;;5.10;99.90;;;;;;5027970;28;20222;-79
2023/02/22 09:17:54;;;;;;;3.60;2.20;;;4.90;99.90;;;;;;5023088;28;20656;-78
2023/02/22 09:20:26;;;;;;;3.93;2.20;;;4.90;99.90;;;;;;5028903;28;20297;-78
2023/02/22 09:22:54;;;;;;;3.53;2.37;;;5.00;99.90;;;;;;5021957;28;20209;-72
2023/02/22 09:25:21;;;;;;;4.03;2.57;;;5.10;99.90;;;;;;4995719;28;20264;-72
2023/02/22 09:27:52;;;;;;;6.30;2.83;;;5.10;99.90;;;;;;5011823;28;20679;-71
2023/02/22 09:30:32;;;;;;;4.37;3.00;;;4.90;99.90;;;;;;5028145;28;20214;-71
2023/02/22 09:33:08;;;;;;;4.37;2.67;;;5.00;99.90;;;;;;5044774;28;20305;-75
2023/02/22 09:35:36;;;;;;;5.53;3.20;;;5.00;99.90;;;;;;5012939;28;20269;-76
2023/02/22 09:38:07;;;;;;;4.13;2.73;;;5.00;99.90;;;;;;5028556;28;20284;-78
2023/02/22 09:40:43;;;;;;;4.90;2.73;;;5.20;99.90;;;;;;5013015;28;20275;-79
2023/02/22 09:43:20;;;;;;;4.93;2.93;;;5.20;99.90;;;;;;5030255;28;20301;-78
2023/02/22 09:46:12;;;;;;;5.00;2.77;;;5.40;99.90;;;;;;5023334;28;20230;-71
2023/02/22 09:48:57;;;;;;;4.33;2.77;;;5.50;99.90;;;;;;5011830;28;20608;-80
2023/02/22 09:51:29;;;;;;;5.03;2.60;;;5.60;99.90;;;;;;5011551;28;20206;-82
2023/02/22 09:54:01;;;;;;;4.57;2.70;;;5.70;99.90;;;;;;5012599;28;20199;-70
2023/02/22 09:56:30;;;;;;;6.30;3.17;;;5.70;99.90;;;;;;5011200;28;20228;-71
2023/02/22 09:59:02;;;;;;;5.43;2.70;;;5.60;99.90;;;;;;5012883;28;20199;-72
2023/02/22 10:01:37;;;;;;;4.87;2.90;;;5.40;99.90;;;;;;5026985;28;20567;-71
2023/02/22 10:04:40;;;;;;;5.30;2.60;;;5.30;99.90;;;;;;5031174;28;20237;-72
2023/02/22 10:07:25;;;;;;;3.63;2.50;;;5.30;99.90;;;;;;5031254;28;20300;-71
2023/02/22 10:09:55;;;;;;;5.60;2.60;;;5.20;99.90;;;;;;5030787;28;20238;-72
2023/02/22 10:12:52;;;;;;;5.57;2.67;;;5.10;99.90;;;;;;5030953;28;20198;-70
2023/02/22 10:15:33;;;;;;;3.93;2.33;;;5.00;99.90;;;;;;5030652;28;20218;-73
2023/02/22 10:18:21;;;;;;;6.07;2.70;;;5.00;99.90;;;;;;5031045;28;20215;-72
2023/02/22 10:21:13;;;;;;;5.63;2.73;;;4.80;99.90;;;;;;5032635;28;20202;-73
2023/02/22 10:23:58;;;;;;;4.90;2.70;;;4.80;99.90;;;;;;5031155;28;20206;-77
2023/02/22 10:26:33;;;;;;;4.87;2.70;;;4.80;99.90;;;;;;5032540;28;20208;-72
2023/02/22 10:29:10;;;;;;;5.33;2.67;;;4.60;99.90;;;;;;5035041;28;20197;-72
2023/02/22 10:31:44;;;;;;;4.63;2.67;;;4.50;99.90;;;;;;5036282;28;20222;-73
2023/02/22 10:34:25;;;;;;;3.93;2.50;;;4.40;99.90;;;;;;5034851;28;20189;-74
2023/02/22 10:37:26;;;;;;;3.50;2.40;;;4.30;99.90;;;;;;5034678;28;20306;-75
2023/02/22 10:40:10;;;;;;;3.70;2.47;;;4.30;99.90;;;;;;5034871;28;20293;-71
2023/02/22 10:42:37;;;;;;;5.03;3.10;;;4.20;99.90;;;;;;5068289;28;20221;-79
2023/02/22 10:45:18;;;;;;;7.93;3.80;;;3.80;99.90;;;;;;5034627;28;20210;-73
2023/02/22 10:47:46;;;;;;;8.43;3.90;;;3.60;99.90;;;;;;5067596;28;20233;-71
2023/02/22 10:50:14;;;;;;;6.17;3.63;;;3.30;99.90;;;;;;5035972;28;20198;-71
2023/02/22 10:52:40;;;;;;;6.80;3.53;;;3.20;99.90;;;;;;5036105;28;20222;-75
2023/02/22 10:55:14;;;;;;;6.37;3.80;;;3.20;99.90;;;;;;5034326;28;20715;-72
2023/02/22 10:57:46;;;;;;;5.93;3.77;;;3.20;99.90;;;;;;5036013;28;20250;-71
2023/02/22 11:00:29;;;;;;;8.07;4.23;;;3.00;99.90;;;;;;5034467;28;20653;-72
2023/02/22 11:03:02;;;;;;;8.27;4.03;;;3.10;99.90;;;;;;5034585;28;20202;-72
2023/02/22 11:05:36;;;;;;;10.67;4.50;;;3.10;99.90;;;;;;5035825;28;20230;-71
2023/02/22 11:08:15;;;;;;;7.77;4.00;;;3.00;99.90;;;;;;5034196;28;20652;-73
2023/02/22 11:10:42;;;;;;;6.83;4.00;;;3.10;99.90;;;;;;5034826;28;20203;-71
2023/02/22 11:13:27;;;;;;;6.73;3.80;;;3.20;99.90;;;;;;5033963;28;20205;-72
2023/02/22 11:15:57;;;;;;;7.80;4.33;;;3.20;99.90;;;;;;5067074;28;20227;-71
2023/02/22 11:18:28;;;;;;;7.80;4.23;;;3.20;99.90;;;;;;5035413;28;20276;-73
2023/02/22 11:21:06;;;;;;;8.43;4.60;;;3.10;99.90;;;;;;5067249;28;20223;-72
2023/02/22 11:23:35;;;;;;;9.13;4.00;;;3.00;99.90;;;;;;5035030;28;20197;-72
2023/02/22 11:26:09;;;;;;;8.10;4.47;;;2.90;99.90;;;;;;5066948;28;20202;-71
2023/02/22 11:28:47;;;;;;;8.27;4.17;;;2.90;99.90;;;;;;5035011;28;20187;-72
2023/02/22 11:31:16;;;;;;;8.23;4.40;;;2.70;99.90;;;;;;5035064;28;20678;-72
2023/02/22 11:33:54;;;;;;;8.77;4.70;;;2.70;99.90;;;;;;5067543;28;20307;-71
2023/02/22 11:36:39;;;;;;;6.43;3.83;;;2.80;99.90;;;;;;5033631;28;20312;-71
2023/02/22 11:39:23;;;;;;;7.67;4.30;;;2.80;99.90;;;;;;5032972;28;20238;-75
2023/02/22 11:41:50;;;;;;;9.10;4.60;;;3.00;99.90;;;;;;5033615;28;20199;-80
2023/02/22 11:44:22;;;;;;;8.70;4.27;;;3.20;99.90;;;;;;5067222;28;20197;-81
2023/02/22 11:46:52;;;;;;;10.70;4.70;;;3.40;99.90;;;;;;5066370;28;20326;-72
2023/02/22 11:49:22;;;;;;;7.97;4.10;;;3.50;99.90;;;;;;5033714;28;20200;-72
2023/02/22 11:52:16;;;;;;;7.70;3.87;;;3.60;99.90;;;;;;5066772;28;20217;-72
2023/02/22 11:55:01;;;;;;;8.37;4.00;;;3.50;99.90;;;;;;5034552;28;20664;-73
2023/02/22 11:57:46;;;;;;;9.57;4.33;;;3.60;99.90;;;;;;5033465;28;20199;-72
2023/02/22 12:00:26;;;;;;;7.63;4.33;;;3.90;99.90;;;;;;5066768;28;20190;-74
2023/02/22 12:03:21;;;;;;;8.27;4.30;;;4.00;99.90;;;;;;5033277;28;20201;-72
2023/02/22 12:06:27;;;;;;;7.60;4.23;;;4.10;99.90;;;;;;5033210;28;20209;-81
2023/02/22 12:09:25;;;;;;;7.83;4.23;;;4.30;99.90;;;;;;5033029;28;20308;-72
2023/02/22 12:12:45;;;;;;;11.03;4.63;;;4.30;99.90;;;;;;5033148;28;20216;-73
2023/02/22 12:15:27;;;;;;;7.57;3.87;;;4.40;99.90;;;;;;5017410;28;20200;-75
2023/02/22 12:18:06;;;;;;;6.27;3.73;;;4.50;99.90;;;;;;5033088;28;20684;-73
2023/02/22 12:20:38;;;;;;;7.03;3.83;;;4.60;99.90;;;;;;5016868;28;20205;-72
2023/02/22 12:23:14;;;;;;;8.27;4.10;;;4.60;99.90;;;;;;5034263;28;20201;-75
2023/02/22 12:25:58;;;;;;;6.67;4.07;;;4.50;99.90;;;;;;5031763;28;20218;-72
2023/02/22 12:28:34;;;;;;;7.93;4.03;;;4.60;99.90;;;;;;5032884;28;20183;-72
2023/02/22 12:31:09;;;;;;;9.00;4.23;;;4.60;99.90;;;;;;5032730;28;20256;-71
2023/02/22 12:34:11;;;;;;;7.20;4.10;;;4.40;99.90;;;;;;5033892;28;20195;-71
2023/02/22 12:36:45;;;;;;;6.60;3.90;;;4.20;99.90;;;;;;5032677;28;20229;-72
2023/02/22 12:39:49;;;;;;;6.30;3.63;;;4.20;99.90;;;;;;5032380;28;20201;-72
2023/02/22 12:43:09;;;;;;;9.00;3.90;;;4.30;99.90;;;;;;5032909;28;20194;-71
2023/02/22 12:45:58;;;;;;;7.80;3.93;;;4.30;99.90;;;;;;4953087;29;20237;-73
2023/02/22 12:48:52;;;;;;;6.87;3.97;;;4.20;99.90;;;;;;4953208;28;20240;-73
2023/02/22 12:51:42;;;;;;;8.73;4.03;;;4.40;99.90;;;;;;4952133;28;20204;-75
2023/02/22 12:54:19;;;;;;;5.97;4.07;;;4.30;99.90;;;;;;4937082;29;20328;-73
2023/02/22 12:57:04;;;;;;;7.23;3.93;;;4.50;99.90;;;;;;4953219;28;20271;-73
2023/02/22 12:59:37;;;;;;;7.23;3.83;;;4.50;99.90;;;;;;4953402;28;20179;-72
2023/02/22 13:02:31;;;;;;;5.70;3.30;;;4.30;99.90;;;;;;4952861;29;20715;-75
2023/02/22 13:05:00;;;;;;;5.67;3.40;;;4.10;99.90;;;;;;4952976;29;20221;-71
2023/02/22 13:07:49;;;;;;;9.67;4.17;;;4.00;99.90;;;;;;4952969;29;20200;-73
2023/02/22 13:10:53;;;;;;;6.50;3.60;;;4.20;99.90;;;;;;4952768;28;20206;-74
2023/02/22 13:13:38;;;;;;;7.43;3.90;;;4.20;99.90;;;;;;4953045;29;20207;-72
2023/02/22 13:16:44;;;;;;;7.10;3.80;;;4.00;99.90;;;;;;4936414;29;20226;-72
2023/02/22 13:19:23;;;;;;;5.67;3.37;;;4.00;99.90;;;;;;4952560;28;20217;-73
2023/02/22 13:22:09;;;;;;;5.60;3.50;;;3.90;99.90;;;;;;4984327;28;20292;-76
2023/02/22 13:24:45;;;;;;;5.43;3.30;;;3.80;99.90;;;;;;5032785;28;20193;-74
2023/02/22 13:27:20;;;;;;;9.30;3.63;;;4.00;99.90;;;;;;5026428;28;20203;-70
2023/02/22 13:29:50;;;;;;;10.53;3.97;;;4.10;99.90;;;;;;5028168;28;20188;-72